时时彩最新_高阳的招聘会在哪举行_辽阳大杂烩
辽阳吧 辽阳特产 辽阳新闻网 辽阳天气 辽阳百姓网
   

产品导航




















当前位置:时时彩最新

  时时彩最新

  2014年10月,人人公司低价将56网卖给搜狐,仅从中获利50万美元,56网创始人周娟也从56网离职。 在此次人事变动之前,易纲在央行副行长中排名第一,潘功胜在副行长中排名第四。

  20多年来的坚持,使得即便他步履蹒跚时也没有人相信他会低头向时间妥协:“好吧,你赢了,我投降……Fuck!”

   球场上,我们各为其主;但在场下,我们情同手足。

  而在防守端,朱芳雨的带球撞人也是廉明制造的,封堵拜纳姆最后一攻时也有廉明的身影。

  中新网1月11日电 据外媒报道,英国著名音乐家、传奇歌手大卫・鲍伊的官方“脸书”账户发表消息称,大卫・鲍伊在与癌症抗争了18个月后逝世,享年69岁。

  SBRD 082030Z 00000KT 9999 FEW020 BKN100 25/23 Q1007= 2015年全年无论是完成定向增发的上市公司数量,还是规模,均创下了历史新高。 账面上,篮网队的薪金并不是史上最高的,06-07赛季尼克斯曾烧过1.2亿的税前总工资,但由于本赛季采用了奢侈税累进税的征收方式,篮网逼近2亿的税后工资是史无前例。

  物价涨幅平稳,全年居民消费价格同比上涨1.4%。 中国股市整体没有在一天跌到10以下,就因为我们有涨跌停板。

  “双独”两孩一直到2011年全国才全部实现,2013年党的十八届三中全会作出了单独两孩的决策,紧接着也就是去年十八届五中全会作出了全面两孩的决策。

  

  

   “生活不只是苟且,还有诗和远方”。 ”

   (二十一)完善法规制度。

友情链接:
曾道人 香港正版挂牌之全篇 香港马会资料大全 香港马会资料 香港历史开奖记录 今期开码结果开奖 东方心经马报 四肖中特期期准 2017年香港全年资料 香港赛马会资料 118图库 王中王开奖结果 118图库彩图图库 118图库彩图 正版免费料大全 2017年香港全年资料 今晚二肖必中特 香港马会开奖结果直播 今晚开奖结果现场直播 今期东方心经马报 今晚开奖现场直播2017年 2017香港开奖现场直播 香港王中王网站 真正香港一码中特图 香港官方网免费资料 香港最准一肖一码 最准的特马网站 香港赛马会官方网 香港赛马会唯一官方网 手机看开奖结果 香港最快开奖结果 特码开奖结果查询 香港正版挂牌之全篇 香港金多宝开奖结果 香港马会 开奖直播 2017香港历史开奖记录 马会免费特供资料站


本站所有站内信息仅供娱乐参考,不作任何商业用途,不以营利为目的,专注分享快乐,欢迎收藏本站!
所有信息均来自:百度一下(辽阳大杂烩)